createdAt,value
2022-10-16T00:01:07.446Z,98468.38
2022-10-16T00:03:36.186Z,98470.22
2022-10-16T00:06:05.060Z,98469.41
2022-10-16T00:08:33.882Z,98479.13
2022-10-16T00:11:05.239Z,98475.59
2022-10-16T00:13:34.241Z,98474.78
2022-10-16T00:16:03.099Z,98477.47
2022-10-16T00:18:31.850Z,98473.91
2022-10-16T00:21:04.637Z,98472.91
2022-10-16T00:23:33.273Z,98480.16
2022-10-16T00:26:06.401Z,98477.59
2022-10-16T00:28:36.594Z,98478.47
2022-10-16T00:31:06.486Z,98478.47
2022-10-16T00:33:35.065Z,98478.47
2022-10-16T00:36:03.818Z,98472.22
2022-10-16T00:38:32.305Z,98473.09
2022-10-16T00:41:00.941Z,98475.78
2022-10-16T00:43:41.307Z,98473.09
2022-10-16T00:46:16.772Z,98467.69
2022-10-16T00:48:49.550Z,98477.59
2022-10-16T00:51:18.643Z,98474.91
2022-10-16T00:53:47.101Z,98476.75
2022-10-16T00:56:15.632Z,98480.28
2022-10-16T00:58:45.517Z,98482.97
2022-10-16T01:01:14.300Z,98481.31
2022-10-16T01:03:42.951Z,98476.75
2022-10-16T01:06:36.429Z,98477.75
2022-10-16T01:09:14.295Z,98471.56
2022-10-16T01:11:50.188Z,98489.38
2022-10-16T01:14:24.723Z,98479.63
2022-10-16T01:16:57.515Z,98486.69
2022-10-16T01:19:51.941Z,98485.84
2022-10-16T01:22:20.898Z,98488.53
2022-10-16T01:24:51.558Z,98476.94
2022-10-16T01:27:23.043Z,98477.75
2022-10-16T01:29:54.957Z,98480.44
2022-10-16T01:32:33.542Z,98477.75
2022-10-16T01:35:04.925Z,98477.75
2022-10-16T01:37:37.901Z,98477.75
2022-10-16T01:40:09.673Z,98464.31
2022-10-16T01:42:41.398Z,98478.78
2022-10-16T01:45:12.480Z,98476.94
2022-10-16T01:47:41.247Z,98487.69
2022-10-16T01:50:10.591Z,98486.69
2022-10-16T01:52:42.011Z,98479.63
2022-10-16T01:55:11.552Z,98479.47
2022-10-16T01:57:44.880Z,98485.84
2022-10-16T02:00:15.178Z,98484.16
2022-10-16T02:02:44.510Z,98488.53
2022-10-16T02:05:17.069Z,98491.22
2022-10-16T02:07:45.719Z,98486.84
2022-10-16T02:10:14.253Z,98494.94
2022-10-16T02:12:45.738Z,98497.63
2022-10-16T02:15:14.228Z,98507.72
2022-10-16T02:17:42.837Z,98504.03
2022-10-16T02:20:12.493Z,98512.94
2022-10-16T02:22:44.796Z,98511.06
2022-10-16T02:25:15.419Z,98509.41
2022-10-16T02:27:51.325Z,98511.22
2022-10-16T02:30:23.562Z,98514.78
2022-10-16T02:32:52.361Z,98513.09
2022-10-16T02:35:22.316Z,98514.78
2022-10-16T02:37:51.169Z,98505.84
2022-10-16T02:40:22.868Z,98497.78
2022-10-16T02:42:56.263Z,98496.94
2022-10-16T02:45:26.560Z,98502.34
2022-10-16T02:47:55.060Z,98502.34
2022-10-16T02:50:23.782Z,98506.03
2022-10-16T02:52:52.337Z,98502.34
2022-10-16T02:55:20.920Z,98506.88
2022-10-16T02:57:49.405Z,98505.22
2022-10-16T03:00:20.358Z,98506.03
2022-10-16T03:02:48.857Z,98513.09
2022-10-16T03:05:17.744Z,98518.47
2022-10-16T03:07:46.320Z,98515.13
2022-10-16T03:10:15.190Z,98510.59
2022-10-16T03:12:43.810Z,98524.03
2022-10-16T03:15:12.542Z,98525.88
2022-10-16T03:17:42.613Z,98526.75
2022-10-16T03:20:11.963Z,98525.72
2022-10-16T03:22:40.571Z,98526.75
2022-10-16T03:25:10.300Z,98528.56
2022-10-16T03:27:38.816Z,98527.72
2022-10-16T03:30:08.986Z,98528.56
2022-10-16T03:32:37.523Z,98533.94
2022-10-16T03:35:08.832Z,98528.56
2022-10-16T03:37:37.373Z,98525.88
2022-10-16T03:40:06.765Z,98536.63
2022-10-16T03:42:35.268Z,98540.34
2022-10-16T03:45:04.048Z,98543.03
2022-10-16T03:47:34.186Z,98544.91
2022-10-16T03:50:02.718Z,98536.81
2022-10-16T03:52:34.000Z,98544.91
2022-10-16T03:55:02.607Z,98548.41
2022-10-16T03:57:31.197Z,98543.22
2022-10-16T03:59:59.754Z,98546.75
2022-10-16T04:02:28.382Z,98540.34
2022-10-16T04:04:56.916Z,98544.06
2022-10-16T04:07:25.860Z,98543.22
2022-10-16T04:09:56.108Z,98545.91
2022-10-16T04:12:24.871Z,98549.44
2022-10-16T04:14:53.350Z,98543.22
2022-10-16T04:17:22.084Z,98547.75
2022-10-16T04:19:50.936Z,98546.09
2022-10-16T04:22:19.513Z,98553.13
2022-10-16T04:24:48.049Z,98547.75
2022-10-16T04:27:18.240Z,98545.06
2022-10-16T04:29:46.765Z,98550.44
2022-10-16T04:32:15.310Z,98547.75
2022-10-16T04:34:43.864Z,98542.38
2022-10-16T04:37:12.438Z,98538.00
2022-10-16T04:39:41.058Z,98546.91
2022-10-16T04:42:09.623Z,98542.56
2022-10-16T04:44:39.476Z,98548.78
2022-10-16T04:47:09.280Z,98544.22
2022-10-16T04:49:37.800Z,98555.19
2022-10-16T04:52:06.765Z,98555.19
2022-10-16T04:54:35.301Z,98555.19
2022-10-16T04:57:03.955Z,98556.00
2022-10-16T04:59:32.418Z,98564.09
2022-10-16T05:02:02.567Z,98565.94
2022-10-16T05:04:31.062Z,98565.06
2022-10-16T05:06:59.622Z,98566.94
2022-10-16T05:09:28.288Z,98562.38
2022-10-16T05:11:57.074Z,98560.56
2022-10-16T05:14:25.675Z,98572.16
2022-10-16T05:16:54.245Z,98572.97
2022-10-16T05:19:28.360Z,98581.22
2022-10-16T05:21:57.682Z,98577.53
2022-10-16T05:24:26.390Z,98582.06
2022-10-16T05:26:54.962Z,98579.38
2022-10-16T05:29:23.607Z,98590.16
2022-10-16T05:31:54.106Z,98593.66
2022-10-16T05:34:24.344Z,98591.81
2022-10-16T05:36:53.205Z,98597.19
2022-10-16T05:39:22.208Z,98599.06
2022-10-16T05:41:53.365Z,98608.97
2022-10-16T05:44:22.051Z,98602.72
2022-10-16T05:46:50.650Z,98611.66
2022-10-16T05:49:19.319Z,98608.13
2022-10-16T05:51:49.294Z,98609.81
2022-10-16T05:54:17.937Z,98616.19
2022-10-16T05:56:47.274Z,98611.66
2022-10-16T05:59:16.111Z,98612.66
2022-10-16T06:01:44.703Z,98625.13
2022-10-16T06:04:13.238Z,98625.13
2022-10-16T06:06:42.072Z,98633.19
2022-10-16T06:09:12.020Z,98631.13
2022-10-16T06:11:40.714Z,98640.22
2022-10-16T06:14:10.226Z,98647.47
2022-10-16T06:16:39.364Z,98650.16
2022-10-16T06:19:09.286Z,98645.63
2022-10-16T06:21:38.103Z,98648.31
2022-10-16T06:24:07.106Z,98659.06
2022-10-16T06:26:37.187Z,98666.09
2022-10-16T06:29:05.897Z,98666.09
2022-10-16T06:31:34.774Z,98675.03
2022-10-16T06:34:05.789Z,98674.03
2022-10-16T06:36:34.411Z,98673.81
2022-10-16T06:39:02.923Z,98673.00
2022-10-16T06:41:31.466Z,98679.22
2022-10-16T06:44:01.348Z,98684.44
2022-10-16T06:46:30.073Z,98683.41
2022-10-16T06:48:58.651Z,98684.28
2022-10-16T06:51:27.543Z,98678.69
2022-10-16T06:54:04.978Z,98684.91
2022-10-16T06:56:34.289Z,98678.69
2022-10-16T06:59:04.391Z,98688.47
2022-10-16T07:01:33.165Z,98680.41
2022-10-16T07:04:02.942Z,98683.91
2022-10-16T07:06:34.379Z,98686.44
2022-10-16T07:09:09.054Z,98689.31
2022-10-16T07:11:38.988Z,98692.69
2022-10-16T07:14:16.551Z,98698.72
2022-10-16T07:16:45.760Z,98692.50
2022-10-16T07:19:15.791Z,98689.66
2022-10-16T07:21:44.652Z,98701.25
2022-10-16T07:24:14.878Z,98696.03
2022-10-16T07:26:44.979Z,98695.03
2022-10-16T07:29:16.835Z,98695.88
2022-10-16T07:31:45.540Z,98704.78
2022-10-16T07:34:14.754Z,98701.06
2022-10-16T07:36:43.443Z,98702.75
2022-10-16T07:39:12.084Z,98708.16
2022-10-16T07:41:40.615Z,98708.16
2022-10-16T07:44:09.813Z,98703.75
2022-10-16T07:46:39.862Z,98704.44
2022-10-16T07:49:08.459Z,98701.75
2022-10-16T07:51:37.066Z,98712.34
2022-10-16T07:54:05.946Z,98716.03
2022-10-16T07:56:35.413Z,98715.03
2022-10-16T07:59:04.143Z,98715.88
2022-10-16T08:01:32.751Z,98716.53
2022-10-16T08:04:02.764Z,98727.81
2022-10-16T08:06:31.323Z,98724.78
2022-10-16T08:09:01.073Z,98733.88
2022-10-16T08:11:29.812Z,98728.66
2022-10-16T08:13:58.478Z,98731.66
2022-10-16T08:16:27.134Z,98730.63
2022-10-16T08:18:55.803Z,98728.81
2022-10-16T08:21:25.927Z,98727.13
2022-10-16T08:23:58.161Z,98722.56
2022-10-16T08:26:28.179Z,98721.91
2022-10-16T08:28:57.153Z,98720.91
2022-10-16T08:31:27.312Z,98731.66
2022-10-16T08:33:55.994Z,98729.66
2022-10-16T08:36:25.904Z,98725.09
2022-10-16T08:38:55.563Z,98738.56
2022-10-16T08:41:57.940Z,98733.00
2022-10-16T08:45:16.063Z,98740.41
2022-10-16T08:47:52.382Z,98745.59
2022-10-16T08:50:25.765Z,98743.09
2022-10-16T08:52:56.129Z,98750.34
2022-10-16T08:55:34.378Z,98745.59
2022-10-16T08:58:03.179Z,98743.44
2022-10-16T09:00:32.602Z,98745.78
2022-10-16T09:03:08.176Z,98746.63
2022-10-16T09:06:04.506Z,98740.41
2022-10-16T09:08:41.675Z,98744.97
2022-10-16T09:11:14.426Z,98738.72
2022-10-16T09:13:50.834Z,98742.28
2022-10-16T09:16:23.396Z,98745.78
2022-10-16T09:18:57.186Z,98745.59
2022-10-16T09:21:27.916Z,98744.78
2022-10-16T09:23:59.804Z,98753.69
2022-10-16T09:26:28.452Z,98762.63
2022-10-16T09:28:57.086Z,98759.94
2022-10-16T09:31:25.732Z,98766.97
2022-10-16T09:33:57.800Z,98765.31
2022-10-16T09:36:26.689Z,98754.53
2022-10-16T09:39:06.750Z,98759.94
2022-10-16T09:41:36.871Z,98775.06
2022-10-16T09:44:06.021Z,98767.81
2022-10-16T09:46:35.491Z,98772.34
2022-10-16T09:49:05.778Z,98765.94
2022-10-16T09:51:36.435Z,98768.66
2022-10-16T09:54:16.683Z,98767.66
2022-10-16T09:56:46.717Z,98774.03
2022-10-16T09:59:16.520Z,98773.19
2022-10-16T10:01:47.536Z,98775.88
2022-10-16T10:04:16.189Z,98765.94
2022-10-16T10:06:46.761Z,98770.50
2022-10-16T10:09:22.225Z,98773.03
2022-10-16T10:11:56.027Z,98770.69
2022-10-16T10:14:30.934Z,98772.00
2022-10-16T10:17:17.970Z,98783.78
2022-10-16T10:19:51.072Z,98778.41
2022-10-16T10:22:32.839Z,98774.69
2022-10-16T10:25:34.840Z,98783.97
2022-10-16T10:28:36.680Z,98783.28
2022-10-16T10:31:09.017Z,98779.59
2022-10-16T10:33:44.962Z,98784.97
2022-10-16T10:36:42.421Z,98786.66
2022-10-16T10:39:13.812Z,98786.84
2022-10-16T10:42:07.949Z,98782.97
2022-10-16T10:45:00.434Z,98786.97
2022-10-16T10:47:37.543Z,98777.22
2022-10-16T10:50:11.503Z,98771.19
2022-10-16T10:52:59.385Z,98772.69
2022-10-16T10:55:34.593Z,98775.03
2022-10-16T10:58:24.898Z,98769.66
2022-10-16T11:00:59.838Z,98761.72
2022-10-16T11:03:37.662Z,98769.66
2022-10-16T11:06:07.823Z,98767.97
2022-10-16T11:08:38.325Z,98765.59
2022-10-16T11:11:10.274Z,98770.31
2022-10-16T11:13:43.118Z,98763.06
2022-10-16T11:16:20.448Z,98758.53
2022-10-16T11:18:55.372Z,98763.22
2022-10-16T11:21:28.739Z,98772.31
2022-10-16T11:24:06.978Z,98779.38
2022-10-16T11:26:37.229Z,98783.09
2022-10-16T11:29:07.596Z,98776.84
2022-10-16T11:31:40.057Z,98782.41
2022-10-16T11:34:16.974Z,98771.47
2022-10-16T11:36:47.490Z,98771.28
2022-10-16T11:39:22.483Z,98771.28
2022-10-16T11:41:52.800Z,98771.13
2022-10-16T11:44:44.754Z,98777.69
2022-10-16T11:50:23.465Z,98782.72
2022-10-16T11:52:58.034Z,98779.69
2022-10-16T11:55:31.595Z,98776.16
2022-10-16T11:58:03.549Z,98776.69
2022-10-16T12:00:37.245Z,98778.69
2022-10-16T12:03:11.186Z,98777.84
2022-10-16T12:06:03.729Z,98782.22
2022-10-16T12:08:32.297Z,98779.69
2022-10-16T12:11:10.290Z,98793.00
2022-10-16T12:13:40.193Z,98789.47
2022-10-16T12:16:23.954Z,98795.69
2022-10-16T12:19:05.852Z,98792.81
2022-10-16T12:21:34.543Z,98798.22
2022-10-16T12:24:06.000Z,98792.81
2022-10-16T12:26:36.389Z,98802.72
2022-10-16T12:29:17.015Z,98796.34
2022-10-16T12:31:57.243Z,98799.06
2022-10-16T12:34:30.209Z,98798.69
2022-10-16T12:36:58.873Z,98799.88
2022-10-16T12:39:27.503Z,98798.84
2022-10-16T12:42:06.469Z,98796.34
2022-10-16T12:44:35.635Z,98802.91
2022-10-16T12:47:07.677Z,98798.84
2022-10-16T12:49:39.706Z,98808.63
2022-10-16T12:52:30.202Z,98801.56
2022-10-16T12:55:01.000Z,98805.94
2022-10-16T12:57:40.427Z,98806.09
2022-10-16T13:00:20.920Z,98818.72
2022-10-16T13:03:33.382Z,98816.03
2022-10-16T13:06:27.586Z,98816.03
2022-10-16T13:09:08.935Z,98812.50
2022-10-16T13:11:52.759Z,98819.75
2022-10-16T13:14:49.133Z,98816.03
2022-10-16T13:17:21.299Z,98815.19
2022-10-16T13:19:55.886Z,98815.19
2022-10-16T13:22:27.911Z,98813.50
2022-10-16T13:25:10.243Z,98817.69
2022-10-16T13:27:46.291Z,98819.41
2022-10-16T13:30:17.965Z,98816.03
2022-10-16T13:32:48.274Z,98825.13
2022-10-16T13:35:26.670Z,98816.53
2022-10-16T13:38:13.644Z,98818.88
2022-10-16T13:40:55.230Z,98817.91
2022-10-16T13:43:27.348Z,98816.38
2022-10-16T13:46:03.369Z,98819.06
2022-10-16T13:48:32.297Z,98813.03
2022-10-16T13:51:04.113Z,98807.47
2022-10-16T13:53:34.291Z,98803.09
2022-10-16T13:56:04.711Z,98802.09
2022-10-16T13:58:33.383Z,98797.69
2022-10-16T14:01:03.618Z,98799.56
2022-10-16T14:03:32.325Z,98793.34
2022-10-16T14:06:04.181Z,98798.53
2022-10-16T14:08:32.740Z,98803.88
2022-10-16T14:11:02.278Z,98807.13
2022-10-16T14:13:35.953Z,98819.75
2022-10-16T14:16:09.057Z,98818.88
2022-10-16T14:18:37.688Z,98820.75
2022-10-16T14:21:09.524Z,98833.38
2022-10-16T14:23:39.466Z,98833.38
2022-10-16T14:26:15.375Z,98836.91
2022-10-16T14:28:45.427Z,98844.31
2022-10-16T14:31:36.857Z,98847.00
2022-10-16T14:34:05.596Z,98843.13
2022-10-16T14:36:36.218Z,98840.63
2022-10-16T14:39:06.739Z,98855.06
2022-10-16T14:41:43.989Z,98855.25
2022-10-16T14:44:12.619Z,98852.38
2022-10-16T14:46:42.633Z,98852.38
2022-10-16T14:49:18.451Z,98848.34
2022-10-16T14:51:48.720Z,98840.28
2022-10-16T14:54:19.046Z,98852.38
2022-10-16T14:56:50.473Z,98848.00
2022-10-16T14:59:23.114Z,98849.03
2022-10-16T15:01:51.665Z,98860.66
2022-10-16T15:04:20.279Z,98861.63
2022-10-16T15:06:50.393Z,98858.94
2022-10-16T15:09:18.981Z,98858.31
2022-10-16T15:11:48.616Z,98862.63
2022-10-16T15:14:17.362Z,98869.22
2022-10-16T15:16:46.912Z,98854.91
2022-10-16T15:19:15.562Z,98866.50
2022-10-16T15:21:44.692Z,98860.13
2022-10-16T15:24:20.714Z,98862.84
2022-10-16T15:26:50.453Z,98859.47
2022-10-16T15:29:21.093Z,98862.50
2022-10-16T15:31:49.836Z,98866.19
2022-10-16T15:34:20.488Z,98877.97
2022-10-16T15:36:49.096Z,98880.31
2022-10-16T15:39:21.333Z,98875.09
2022-10-16T15:41:52.212Z,98879.66
2022-10-16T15:44:21.289Z,98878.81
2022-10-16T15:46:49.846Z,98877.16
2022-10-16T15:49:18.450Z,98882.53
2022-10-16T15:51:47.150Z,98881.66
2022-10-16T15:54:16.450Z,98892.44
2022-10-16T15:56:46.952Z,98899.66
2022-10-16T15:59:15.505Z,98900.50
2022-10-16T16:01:44.254Z,98898.84
2022-10-16T16:04:31.849Z,98897.16
2022-10-16T16:07:02.303Z,98902.56
2022-10-16T16:09:31.904Z,98910.63
2022-10-16T16:12:02.179Z,98906.75
2022-10-16T16:14:30.850Z,98909.94
2022-10-16T16:16:59.558Z,98907.59
2022-10-16T16:19:28.190Z,98904.22
2022-10-16T16:21:56.940Z,98914.31
2022-10-16T16:24:27.549Z,98906.06
2022-10-16T16:26:56.223Z,98905.25
2022-10-16T16:29:26.196Z,98903.19
2022-10-16T16:31:58.293Z,98907.75
2022-10-16T16:34:27.193Z,98912.50
2022-10-16T16:36:55.911Z,98930.47
2022-10-16T16:39:24.745Z,98948.31
2022-10-16T16:41:53.437Z,98952.88
2022-10-16T16:44:22.323Z,98954.53
2022-10-16T16:46:52.455Z,98963.44
2022-10-16T16:49:21.056Z,98968.16
2022-10-16T16:51:49.664Z,98962.78
2022-10-16T16:54:18.340Z,98965.81
2022-10-16T16:56:57.078Z,98971.53
2022-10-16T16:59:25.693Z,98977.75
2022-10-16T17:01:57.124Z,98969.84
2022-10-16T17:04:25.939Z,98972.53
2022-10-16T17:06:55.358Z,98981.47
2022-10-16T17:09:24.091Z,98977.25
2022-10-16T17:11:52.705Z,98983.13
2022-10-16T17:14:21.235Z,98992.22
2022-10-16T17:16:50.088Z,98989.34
2022-10-16T17:19:20.979Z,98991.06
2022-10-16T17:21:51.109Z,99009.22
2022-10-16T17:24:21.163Z,99009.41
2022-10-16T17:26:50.498Z,99012.25
2022-10-16T17:29:19.407Z,99011.22
2022-10-16T17:31:49.931Z,99018.47
2022-10-16T17:34:19.858Z,99015.78
2022-10-16T17:36:48.516Z,99018.31
2022-10-16T17:39:19.119Z,99014.94
2022-10-16T17:41:48.975Z,99019.50
2022-10-16T17:44:20.902Z,99022.88
2022-10-16T17:46:49.841Z,99035.47
2022-10-16T17:49:21.011Z,99035.63
2022-10-16T17:51:51.967Z,99043.88
2022-10-16T17:54:21.030Z,99040.19
2022-10-16T17:56:49.882Z,99046.41
2022-10-16T17:59:20.878Z,99049.94
2022-10-16T18:01:49.625Z,99045.56
2022-10-16T18:04:18.652Z,99047.94
2022-10-16T18:06:48.957Z,99054.84
2022-10-16T18:09:19.239Z,99045.72
2022-10-16T18:11:49.219Z,99050.28
2022-10-16T18:14:19.059Z,99049.44
2022-10-16T18:16:47.801Z,99061.38
2022-10-16T18:19:16.558Z,99052.28
2022-10-16T18:21:45.173Z,99050.28
2022-10-16T18:24:15.185Z,99062.03
2022-10-16T18:26:43.835Z,99050.44
2022-10-16T18:29:12.677Z,99049.44
2022-10-16T18:31:42.755Z,99051.13
2022-10-16T18:34:11.844Z,99052.13
2022-10-16T18:36:42.402Z,99053.13
2022-10-16T18:39:11.576Z,99058.00
2022-10-16T18:41:44.819Z,99065.06
2022-10-16T18:44:13.957Z,99073.81
2022-10-16T18:46:42.712Z,99072.81
2022-10-16T18:49:11.550Z,99069.13
2022-10-16T18:51:40.861Z,99081.56
2022-10-16T18:54:11.699Z,99078.03
2022-10-16T18:56:41.585Z,99084.25
2022-10-16T18:59:10.736Z,99085.09
2022-10-16T19:01:39.752Z,99086.94
2022-10-16T19:04:09.717Z,99087.97
2022-10-16T19:06:40.080Z,99088.81
2022-10-16T19:09:10.475Z,99095.88
2022-10-16T19:11:41.843Z,99092.53
2022-10-16T19:14:12.174Z,99093.34
2022-10-16T19:16:42.858Z,99105.81
2022-10-16T19:19:18.347Z,99099.59
2022-10-16T19:21:48.247Z,99104.13
2022-10-16T19:24:17.742Z,99115.72
2022-10-16T19:26:46.353Z,99113.19
2022-10-16T19:29:16.414Z,99125.66
2022-10-16T19:31:45.225Z,99125.66
2022-10-16T19:34:14.058Z,99125.66
2022-10-16T19:36:45.127Z,99130.22
2022-10-16T19:39:15.983Z,99129.19
2022-10-16T19:41:44.948Z,99123.81
2022-10-16T19:44:16.928Z,99131.06
2022-10-16T19:46:46.421Z,99134.44
2022-10-16T19:49:18.128Z,99136.44
2022-10-16T19:51:50.524Z,99133.41
2022-10-16T19:54:19.264Z,99142.31
2022-10-16T19:56:48.180Z,99134.25
2022-10-16T19:59:20.371Z,99142.50
2022-10-16T20:01:49.353Z,99137.13
2022-10-16T20:04:17.973Z,99141.63
2022-10-16T20:06:47.207Z,99149.72
2022-10-16T20:09:15.920Z,99153.28
2022-10-16T20:11:44.591Z,99151.56
2022-10-16T20:14:13.168Z,99157.78
2022-10-16T20:16:46.538Z,99160.50
2022-10-16T20:19:15.159Z,99158.81
2022-10-16T20:21:43.946Z,99162.34
2022-10-16T20:24:12.760Z,99160.66
2022-10-16T20:26:41.631Z,99158.81
2022-10-16T20:29:10.306Z,99166.06
2022-10-16T20:31:39.925Z,99165.22
2022-10-16T20:34:12.167Z,99174.13
2022-10-16T20:36:43.040Z,99174.28
2022-10-16T20:39:13.765Z,99183.19
2022-10-16T20:41:42.506Z,99176.13
2022-10-16T20:44:11.133Z,99176.13
2022-10-16T20:46:39.939Z,99182.34
2022-10-16T20:49:27.865Z,99186.06
2022-10-16T20:51:58.729Z,99175.31
2022-10-16T20:54:27.248Z,99176.13
2022-10-16T20:56:56.037Z,99182.53
2022-10-16T20:59:24.657Z,99196.00
2022-10-16T21:01:53.367Z,99199.53
2022-10-16T21:04:23.372Z,99200.56
2022-10-16T21:06:52.132Z,99202.38
2022-10-16T21:09:20.645Z,99203.25
2022-10-16T21:11:49.297Z,99209.47
2022-10-16T21:14:17.810Z,99212.16
2022-10-16T21:16:46.565Z,99218.38
2022-10-16T21:19:15.374Z,99208.44
2022-10-16T21:21:45.456Z,99223.75
2022-10-16T21:24:16.614Z,99226.59
2022-10-16T21:26:45.989Z,99230.16
2022-10-16T21:29:14.561Z,99226.59
2022-10-16T21:31:43.430Z,99232.84
2022-10-16T21:34:11.972Z,99237.38
2022-10-16T21:36:42.130Z,99237.38
2022-10-16T21:39:13.485Z,99236.53
2022-10-16T21:41:42.404Z,99241.91
2022-10-16T21:44:11.259Z,99239.41
2022-10-16T21:46:41.066Z,99242.75
2022-10-16T21:49:13.363Z,99245.63
2022-10-16T21:51:43.317Z,99243.78
2022-10-16T21:54:14.722Z,99247.31
2022-10-16T21:56:43.465Z,99252.69
2022-10-16T21:59:12.836Z,99252.69
2022-10-16T22:01:41.458Z,99258.06
2022-10-16T22:04:11.417Z,99253.69
2022-10-16T22:06:40.240Z,99256.41
2022-10-16T22:09:08.897Z,99252.88
2022-10-16T22:11:38.898Z,99250.16
2022-10-16T22:14:08.481Z,99252.88
2022-10-16T22:16:37.277Z,99251.16
2022-10-16T22:19:07.458Z,99247.47
2022-10-16T22:21:37.240Z,99245.78
2022-10-16T22:24:07.377Z,99253.84
2022-10-16T22:26:36.300Z,99253.84
2022-10-16T22:29:06.448Z,99252.88
2022-10-16T22:31:35.199Z,99250.16
2022-10-16T22:34:04.895Z,99254.69
2022-10-16T22:36:33.644Z,99260.06
2022-10-16T22:39:02.361Z,99266.31
2022-10-16T22:41:30.868Z,99268.31
2022-10-16T22:43:59.548Z,99272.00
2022-10-16T22:46:32.042Z,99266.63
2022-10-16T22:49:00.772Z,99269.31
2022-10-16T22:51:29.427Z,99275.72
2022-10-16T22:53:58.795Z,99279.09
2022-10-16T22:56:27.390Z,99269.31
2022-10-16T22:58:57.545Z,99274.56
2022-10-16T23:01:29.628Z,99265.47
2022-10-16T23:03:58.249Z,99275.38
2022-10-16T23:06:26.875Z,99282.47
2022-10-16T23:08:55.917Z,99278.06
2022-10-16T23:11:24.572Z,99279.78
2022-10-16T23:13:53.160Z,99280.78
2022-10-16T23:16:23.037Z,99285.19
2022-10-16T23:18:52.921Z,99280.78
2022-10-16T23:21:22.996Z,99286.16
2022-10-16T23:23:51.811Z,99278.91
2022-10-16T23:26:22.967Z,99283.47
2022-10-16T23:28:51.662Z,99286.16
2022-10-16T23:31:20.594Z,99286.16
2022-10-16T23:33:49.164Z,99285.31
2022-10-16T23:36:20.170Z,99286.16
2022-10-16T23:38:48.800Z,99283.31
2022-10-16T23:41:17.632Z,99282.47
2022-10-16T23:43:46.389Z,99294.22
2022-10-16T23:46:15.527Z,99292.56
2022-10-16T23:48:44.452Z,99284.47
2022-10-16T23:51:13.059Z,99282.78
2022-10-16T23:53:43.383Z,99298.94
2022-10-16T23:56:12.005Z,99299.78
2022-10-16T23:58:41.076Z,99296.22
